Palma, Brazil
Current Conditions -  °F | °C
As of 5:00 PM on Tuesday 21 Oct 2014 (Local Time) from SBCP Reporting Station
Overcast Overcast  
Wind Chill: 73°   Ceiling: 9000
Heat Index: 73°   Visibility: 6mi
Dew Point: 66°   Wind: 17mph
Humidity: 78%   Direction: 190°S
Pressure: 30.06"   Gusts: NA
Location:  21.38°S, 42.31°W
Report Text: SBCP 211900Z 19015KT 9999 SCT020 OVC090 23/19 Q1018
Loading
Personal Weather Stations






























Interactive Weather Map
Tropical Storm Tracking
New forecast layout! Learn more

10-Day Weather Forecast

Advertisements
Track Severe Weather on mobile